KHSD

Sundance Airport

Oklahoma City, Oklahoma, USA
METAR KHSD 201615Z AUTO 29016KT 10SM OVC027 23/16 A3004 RMK A01
Observed Flight Rules
Aug-20 @ 16:15 UTC (10 minutes ago) Marginal Visual Flight Rules
Wind Visibility Clouds
290° at 16 knots 10 miles
  • Overcast at 2,700' AGL
Temperatures Readings
Current 23°C / 73°F
Dewpoint 16°C / 61°F
Humidity 65%
Altimeter 30.04" Hg
Pressure 1017 hPa
Elevation 364
METAR KHSD 201615Z AUTO 29016KT 10SM OVC027 23/16 A3004 RMK A01
Observed Flight Rules
Aug-20 @ 16:15 UTC
(10 minutes ago)
MVFR
Wind Visibility
290° at 16 knots 10 miles
Clouds
  • Overcast at 2,700' AGL
Temperature Dewpoint
23°C / 73°F 16°C / 61°F
Humidity Altimeter Pressure
65% 30.04" Hg 1017 hPa